createdAt,value
2019-04-23T00:02:35.402Z,18.90
2019-04-23T00:11:19.493Z,18.90
2019-04-23T00:15:55.559Z,18.80
2019-04-23T00:20:10.107Z,18.80
2019-04-23T00:25:19.322Z,18.70
2019-04-23T00:29:11.961Z,18.70
2019-04-23T00:33:30.261Z,18.70
2019-04-23T00:37:47.436Z,18.60
2019-04-23T00:42:14.867Z,18.50
2019-04-23T00:46:35.052Z,18.50
2019-04-23T00:51:00.128Z,18.40
2019-04-23T00:55:14.670Z,18.40
2019-04-23T00:59:39.141Z,18.30
2019-04-23T01:03:53.419Z,18.30
2019-04-23T01:08:13.285Z,18.30
2019-04-23T01:12:44.975Z,18.20
2019-04-23T01:16:55.003Z,18.10
2019-04-23T01:20:58.509Z,18.10
2019-04-23T01:25:36.424Z,18.00
2019-04-23T01:34:38.849Z,17.90
2019-04-23T01:38:56.042Z,17.80
2019-04-23T01:43:17.450Z,17.80
2019-04-23T01:47:40.640Z,17.70
2019-04-23T01:51:58.448Z,17.70
2019-04-23T01:56:17.244Z,17.70
2019-04-23T02:05:04.152Z,17.60
2019-04-23T02:09:16.915Z,17.50
2019-04-23T02:13:36.335Z,17.50
2019-04-23T02:18:05.483Z,17.40
2019-04-23T02:22:53.611Z,17.40
2019-04-23T02:27:02.654Z,17.40
2019-04-23T02:40:18.849Z,17.20
2019-04-23T02:44:24.342Z,17.20
2019-04-23T02:48:52.450Z,17.20
2019-04-23T02:53:14.705Z,17.10
2019-04-23T02:57:18.691Z,17.10
2019-04-23T03:01:39.720Z,17.10
2019-04-23T03:06:04.955Z,17.10
2019-04-23T03:10:31.321Z,17.00
2019-04-23T03:14:51.214Z,17.00
2019-04-23T03:19:38.358Z,16.80
2019-04-23T03:28:37.672Z,16.70
2019-04-23T03:37:19.887Z,16.70
2019-04-23T03:46:11.830Z,16.60
2019-04-23T03:50:15.349Z,16.60
2019-04-23T03:58:54.031Z,16.50
2019-04-23T04:07:44.434Z,16.40
2019-04-23T04:11:50.311Z,16.40
2019-04-23T04:16:28.259Z,16.40
2019-04-23T04:20:53.801Z,16.30
2019-04-23T04:24:48.170Z,16.30
2019-04-23T04:46:42.367Z,16.20
2019-04-23T04:51:00.753Z,16.20
2019-04-23T04:55:23.437Z,16.20
2019-04-23T04:59:37.775Z,16.20
2019-04-23T05:03:43.750Z,16.20
2019-04-23T05:12:43.840Z,16.20
2019-04-23T05:16:56.511Z,16.20
2019-04-23T05:25:33.121Z,16.30
2019-04-23T05:34:08.101Z,16.30
2019-04-23T05:38:43.198Z,16.40
2019-04-23T05:42:53.350Z,16.50
2019-04-23T05:55:56.405Z,16.70
2019-04-23T06:00:20.823Z,16.90
2019-04-23T06:04:36.989Z,17.10
2019-04-23T06:13:18.587Z,17.40
2019-04-23T06:17:55.886Z,17.60
2019-04-23T06:26:29.929Z,18.00
2019-04-23T06:30:47.499Z,18.10
2019-04-23T06:35:01.494Z,18.30
2019-04-23T06:39:17.702Z,18.50
2019-04-23T06:44:09.314Z,18.70
2019-04-23T06:48:21.847Z,18.90
2019-04-23T06:52:31.456Z,19.10
2019-04-23T06:57:09.053Z,19.20
2019-04-23T07:01:17.888Z,19.30
2019-04-23T07:06:13.797Z,19.40
2019-04-23T07:10:20.046Z,19.60
2019-04-23T07:14:44.165Z,19.70
2019-04-23T07:19:04.616Z,19.90
2019-04-23T07:23:33.543Z,20.00
2019-04-23T07:27:37.494Z,20.10
2019-04-23T07:31:59.029Z,20.10
2019-04-23T07:40:51.354Z,20.40
2019-04-23T07:45:19.268Z,20.50
2019-04-23T07:49:43.391Z,20.80
2019-04-23T07:54:01.274Z,21.00
2019-04-23T07:58:19.551Z,21.30
2019-04-23T08:02:57.967Z,21.70
2019-04-23T08:07:00.806Z,22.00
2019-04-23T08:15:42.548Z,22.60
2019-04-23T08:20:04.137Z,22.90
2019-04-23T08:24:50.629Z,23.20
2019-04-23T08:33:23.368Z,24.00
2019-04-23T08:38:09.484Z,24.50
2019-04-23T08:42:27.046Z,25.00
2019-04-23T08:46:56.887Z,25.40
2019-04-23T08:51:26.212Z,26.00
2019-04-23T08:55:34.890Z,26.60
2019-04-23T08:59:50.157Z,27.20
2019-04-23T09:04:09.370Z,27.80
2019-04-23T09:12:55.278Z,28.90
2019-04-23T09:17:13.193Z,29.40
2019-04-23T09:21:29.232Z,29.70
2019-04-23T09:30:12.610Z,29.80
2019-04-23T09:35:02.292Z,29.90
2019-04-23T09:39:12.939Z,30.20
2019-04-23T09:43:48.544Z,30.50
2019-04-23T09:52:27.608Z,30.90
2019-04-23T09:56:50.880Z,31.10
2019-04-23T10:01:25.772Z,31.30
2019-04-23T10:05:30.855Z,31.40
2019-04-23T10:09:40.620Z,31.40
2019-04-23T10:14:00.608Z,31.40
2019-04-23T10:18:20.210Z,31.30
2019-04-23T10:22:39.558Z,31.40
2019-04-23T10:26:57.930Z,31.50
2019-04-23T10:31:16.752Z,31.70
2019-04-23T10:35:46.095Z,31.80
2019-04-23T10:39:59.251Z,31.90
2019-04-23T10:44:25.588Z,31.90
2019-04-23T10:49:47.796Z,31.90
2019-04-23T10:54:16.080Z,31.90
2019-04-23T10:58:25.024Z,31.90
2019-04-23T11:03:02.296Z,31.80
2019-04-23T11:07:20.867Z,31.60
2019-04-23T11:11:28.533Z,31.40
2019-04-23T11:16:25.388Z,31.20
2019-04-23T11:24:36.020Z,30.70
2019-04-23T11:33:08.971Z,30.20
2019-04-23T11:37:48.037Z,30.10
2019-04-23T11:41:51.787Z,30.00
2019-04-23T11:46:17.942Z,30.10
2019-04-23T11:54:43.173Z,30.10
2019-04-23T11:59:16.325Z,30.20
2019-04-23T12:03:39.815Z,30.40
2019-04-23T12:08:17.487Z,30.70
2019-04-23T12:12:33.292Z,31.00
2019-04-23T12:21:33.520Z,31.50
2019-04-23T12:25:47.483Z,31.80
2019-04-23T12:30:08.905Z,31.90
2019-04-23T12:34:41.095Z,32.00
2019-04-23T12:38:41.084Z,32.00
2019-04-23T12:43:13.300Z,32.00
2019-04-23T12:51:50.280Z,31.90
2019-04-23T12:56:08.963Z,31.80
2019-04-23T13:00:37.235Z,31.70
2019-04-23T13:04:54.970Z,31.70
2019-04-23T13:09:23.189Z,31.80
2019-04-23T13:17:56.706Z,32.10
2019-04-23T13:22:16.485Z,32.20
2019-04-23T13:26:23.627Z,32.20
2019-04-23T13:35:34.009Z,32.10
2019-04-23T13:39:39.602Z,31.80
2019-04-23T13:43:48.595Z,31.60
2019-04-23T13:53:07.628Z,31.00
2019-04-23T13:57:33.198Z,30.80
2019-04-23T14:01:27.803Z,30.70
2019-04-23T14:06:09.419Z,30.50
2019-04-23T14:10:29.448Z,30.40
2019-04-23T14:15:09.836Z,30.20
2019-04-23T14:19:02.325Z,30.00
2019-04-23T14:23:39.805Z,30.00
2019-04-23T14:28:01.786Z,29.90
2019-04-23T14:32:17.176Z,29.70
2019-04-23T14:36:52.597Z,29.40
2019-04-23T14:41:04.629Z,29.10
2019-04-23T14:45:32.754Z,28.80
2019-04-23T14:49:56.884Z,28.60
2019-04-23T14:53:53.794Z,28.50
2019-04-23T15:02:44.631Z,28.20
2019-04-23T15:11:27.601Z,28.20
2019-04-23T15:15:48.647Z,28.00
2019-04-23T15:20:03.289Z,27.90
2019-04-23T15:28:26.546Z,27.70
2019-04-23T15:33:26.680Z,27.50
2019-04-23T15:37:40.815Z,27.40
2019-04-23T15:46:11.638Z,27.20
2019-04-23T15:50:28.365Z,27.10
2019-04-23T15:54:47.269Z,26.90
2019-04-23T15:59:21.077Z,26.80
2019-04-23T16:03:00.321Z,26.70
2019-04-23T16:07:35.185Z,26.60
2019-04-23T16:11:59.526Z,26.50
2019-04-23T16:16:31.508Z,26.50
2019-04-23T16:21:11.935Z,26.40
2019-04-23T16:25:17.826Z,26.30
2019-04-23T16:29:32.733Z,26.40
2019-04-23T16:34:05.133Z,26.40
2019-04-23T16:42:39.991Z,26.50
2019-04-23T16:47:02.611Z,26.60
2019-04-23T17:00:18.387Z,26.60
2019-04-23T17:04:24.362Z,26.60
2019-04-23T17:08:57.585Z,26.50
2019-04-23T17:13:20.939Z,26.40
2019-04-23T17:17:18.488Z,26.40
2019-04-23T17:21:45.345Z,26.30
2019-04-23T17:30:28.646Z,26.10
2019-04-23T17:43:39.932Z,25.80
2019-04-23T17:48:22.247Z,25.60
2019-04-23T17:52:52.053Z,25.50
2019-04-23T18:05:54.426Z,25.10
2019-04-23T18:14:21.547Z,24.80
2019-04-23T18:27:30.971Z,24.40
2019-04-23T18:32:14.713Z,24.30
2019-04-23T18:36:18.339Z,24.20
2019-04-23T18:40:58.895Z,24.10
2019-04-23T18:45:07.786Z,24.10
2019-04-23T18:49:33.134Z,23.90
2019-04-23T18:53:54.522Z,23.80
2019-04-23T18:58:04.234Z,23.70
2019-04-23T19:02:52.339Z,23.70
2019-04-23T19:07:27.524Z,23.60
2019-04-23T19:16:02.341Z,23.40
2019-04-23T19:20:45.279Z,23.30
2019-04-23T19:29:16.039Z,23.20
2019-04-23T19:37:55.622Z,23.10
2019-04-23T19:42:24.103Z,23.00
2019-04-23T19:46:48.912Z,22.90
2019-04-23T19:55:11.407Z,22.80
2019-04-23T19:59:43.193Z,22.70
2019-04-23T20:03:54.214Z,22.70
2019-04-23T20:08:25.121Z,22.60
2019-04-23T20:12:32.130Z,22.60
2019-04-23T20:21:16.002Z,22.40
2019-04-23T20:26:03.337Z,22.30
2019-04-23T20:31:58.162Z,22.30
2019-04-23T20:34:37.381Z,22.20
2019-04-23T20:39:03.855Z,22.10
2019-04-23T20:43:09.777Z,22.00
2019-04-23T20:47:24.492Z,21.90
2019-04-23T20:52:00.833Z,21.90
2019-04-23T20:56:17.996Z,21.80
2019-04-23T21:00:44.113Z,21.70
2019-04-23T21:05:06.257Z,21.60
2019-04-23T21:09:27.901Z,21.60
2019-04-23T21:14:01.848Z,21.50
2019-04-23T21:18:10.325Z,21.40
2019-04-23T21:22:20.503Z,21.30
2019-04-23T21:26:50.223Z,21.30
2019-04-23T21:31:11.538Z,21.20
2019-04-23T21:36:08.546Z,21.10
2019-04-23T21:45:09.070Z,20.90
2019-04-23T21:53:46.318Z,20.80
2019-04-23T21:58:20.047Z,20.70
2019-04-23T22:02:31.328Z,20.70
2019-04-23T22:06:48.021Z,20.60
2019-04-23T22:11:36.248Z,20.50
2019-04-23T22:15:34.467Z,20.50
2019-04-23T22:20:03.098Z,20.40
2019-04-23T22:24:19.511Z,20.40
2019-04-23T22:28:39.535Z,20.30
2019-04-23T22:33:04.024Z,20.20
2019-04-23T22:41:36.341Z,20.10
2019-04-23T22:50:14.299Z,20.00
2019-04-23T22:54:31.859Z,20.00
2019-04-23T22:59:15.097Z,19.90
2019-04-23T23:03:21.187Z,19.80
2019-04-23T23:08:04.593Z,19.80
2019-04-23T23:12:10.958Z,19.70
2019-04-23T23:16:21.395Z,19.70
2019-04-23T23:20:48.927Z,19.60
2019-04-23T23:25:14.928Z,19.60
2019-04-23T23:29:19.665Z,19.60
2019-04-23T23:33:52.027Z,19.50
2019-04-23T23:38:08.260Z,19.50
2019-04-23T23:42:27.630Z,19.50
2019-04-23T23:55:31.189Z,19.50
